Time;durP1;ratioP1;P1;durP2;ratioP2;P2;SDS_P1;SDS_P2;PMS_P1;PMS_P2;Temp;Humidity;BMP_temperature;BMP_pressure;BME280_temperature;BME280_humidity;BME280_pressure;Samples;Min_cycle;Max_cycle;Signal;HPM_P1;HPM_P2
2023/07/31 00:01:14;;;;;;;6.57;3.13;;;;;;;;;;4992306;28;20544;-78
2023/07/31 00:03:40;;;;;;;4.80;3.33;;;;;;;;;;4989975;28;20045;-78
2023/07/31 00:06:08;;;;;;;6.05;3.28;;;;;;;;;;4992796;28;20050;-78
2023/07/31 00:08:34;;;;;;;4.85;3.13;;;;;;;;;;4993862;28;20417;-79
2023/07/31 00:11:01;;;;;;;5.50;3.25;;;;;;;;;;4994224;28;20054;-78
2023/07/31 00:13:28;;;;;;;5.93;3.17;;;;;;;;;;4997124;28;20050;-79
2023/07/31 00:15:54;;;;;;;6.22;3.63;;;;;;;;;;5012475;28;20034;-78
2023/07/31 00:18:21;;;;;;;7.18;3.10;;;;;;;;;;4996549;28;20117;-79
2023/07/31 00:20:47;;;;;;;5.63;3.40;;;;;;;;;;4994318;28;20050;-78
2023/07/31 00:23:15;;;;;;;5.50;2.97;;;;;;;;;;4992536;28;20056;-78
2023/07/31 00:25:42;;;;;;;4.45;2.97;;;;;;;;;;4993672;28;20050;-78
2023/07/31 00:28:09;;;;;;;4.32;2.70;;;;;;;;;;4995046;28;20070;-78
2023/07/31 00:30:35;;;;;;;4.63;2.40;;;;;;;;;;5005605;28;20038;-78
2023/07/31 00:33:02;;;;;;;5.50;3.05;;;;;;;;;;5012336;28;20062;-78
2023/07/31 00:35:28;;;;;;;5.43;2.65;;;;;;;;;;5016050;28;20098;-77
2023/07/31 00:37:55;;;;;;;4.93;3.30;;;;;;;;;;5016983;28;20086;-79
2023/07/31 00:40:23;;;;;;;6.07;3.30;;;;;;;;;;5016813;28;20065;-78
2023/07/31 00:42:49;;;;;;;5.32;2.75;;;;;;;;;;5015352;28;20110;-78
2023/07/31 00:45:16;;;;;;;4.22;2.85;;;;;;;;;;5015529;28;20038;-78
2023/07/31 00:47:42;;;;;;;5.38;2.85;;;;;;;;;;5014930;28;20039;-79
2023/07/31 00:50:09;;;;;;;7.72;4.03;;;;;;;;;;5015110;28;20050;-79
2023/07/31 00:52:36;;;;;;;6.65;3.42;;;;;;;;;;5015132;28;20035;-79
2023/07/31 00:55:03;;;;;;;5.40;3.40;;;;;;;;;;5007816;28;20062;-78
2023/07/31 00:57:32;;;;;;;5.80;3.85;;;;;;;;;;4997879;28;20046;-78
2023/07/31 00:59:59;;;;;;;6.80;3.85;;;;;;;;;;4994330;28;20206;-77
2023/07/31 01:02:25;;;;;;;4.70;3.22;;;;;;;;;;4995637;28;20042;-79
2023/07/31 01:04:53;;;;;;;4.65;3.17;;;;;;;;;;4994088;28;20051;-79
2023/07/31 01:07:25;;;;;;;6.05;3.00;;;;;;;;;;4993764;28;20060;-79
2023/07/31 01:10:01;;;;;;;5.95;3.20;;;;;;;;;;4990874;28;20053;-78
2023/07/31 01:12:29;;;;;;;6.05;3.72;;;;;;;;;;4993878;28;20039;-79
2023/07/31 01:15:05;;;;;;;5.70;3.33;;;;;;;;;;4992743;28;20145;-78
2023/07/31 01:17:31;;;;;;;5.85;3.60;;;;;;;;;;4993259;28;20054;-78
2023/07/31 01:20:04;;;;;;;5.82;3.40;;;;;;;;;;4992964;28;20039;-79
2023/07/31 01:22:47;;;;;;;5.88;3.42;;;;;;;;;;4991653;28;20125;-78
2023/07/31 01:25:27;;;;;;;5.97;2.70;;;;;;;;;;4992547;28;20579;-78
2023/07/31 01:28:00;;;;;;;4.95;2.85;;;;;;;;;;4992432;28;20043;-78
2023/07/31 01:30:33;;;;;;;4.65;2.85;;;;;;;;;;4990882;28;20042;-79
2023/07/31 01:33:01;;;;;;;5.63;3.10;;;;;;;;;;4986536;28;20061;-79
2023/07/31 01:35:28;;;;;;;6.05;3.25;;;;;;;;;;4990289;28;20035;-78
2023/07/31 01:37:55;;;;;;;6.47;3.22;;;;;;;;;;4993720;28;20053;-79
2023/07/31 01:40:22;;;;;;;5.70;3.30;;;;;;;;;;4993500;28;20050;-79
2023/07/31 01:42:48;;;;;;;6.80;3.20;;;;;;;;;;4993940;28;20047;-79
2023/07/31 01:45:16;;;;;;;7.40;3.63;;;;;;;;;;4994524;28;20416;-79
2023/07/31 01:47:43;;;;;;;5.43;3.20;;;;;;;;;;4994087;28;20505;-79
2023/07/31 01:50:10;;;;;;;5.82;2.85;;;;;;;;;;4995015;28;20042;-79
2023/07/31 01:52:37;;;;;;;5.95;3.17;;;;;;;;;;4994193;28;20493;-79
2023/07/31 01:55:04;;;;;;;4.82;2.80;;;;;;;;;;4993603;28;20398;-79
2023/07/31 01:57:30;;;;;;;4.75;2.70;;;;;;;;;;4994206;28;20054;-78
2023/07/31 01:59:57;;;;;;;4.55;2.70;;;;;;;;;;4993025;28;20062;-79
2023/07/31 02:02:25;;;;;;;5.30;2.70;;;;;;;;;;4993076;28;20084;-79
2023/07/31 02:04:51;;;;;;;5.68;2.75;;;;;;;;;;4994075;28;20042;-79
2023/07/31 02:07:18;;;;;;;5.10;3.00;;;;;;;;;;4996107;28;20065;-79
2023/07/31 02:09:46;;;;;;;5.57;3.03;;;;;;;;;;4991393;28;20054;-79
2023/07/31 02:12:14;;;;;;;6.43;3.45;;;;;;;;;;4991016;28;20038;-79
2023/07/31 02:14:40;;;;;;;4.38;3.00;;;;;;;;;;4991427;28;20429;-79
2023/07/31 02:17:07;;;;;;;5.35;3.15;;;;;;;;;;4997279;28;20046;-79
2023/07/31 02:19:35;;;;;;;6.20;3.33;;;;;;;;;;5014372;28;20054;-80
2023/07/31 02:22:01;;;;;;;5.47;2.95;;;;;;;;;;5010680;28;20058;-79
2023/07/31 02:24:28;;;;;;;5.95;3.08;;;;;;;;;;5006593;28;20039;-79
2023/07/31 02:26:54;;;;;;;5.00;2.92;;;;;;;;;;4993990;28;20046;-78
2023/07/31 02:29:21;;;;;;;5.10;3.30;;;;;;;;;;4995931;28;20050;-79
2023/07/31 02:31:47;;;;;;;4.82;3.28;;;;;;;;;;4994455;28;20554;-78
2023/07/31 02:34:14;;;;;;;5.10;2.78;;;;;;;;;;4994703;28;20050;-79
2023/07/31 02:36:42;;;;;;;4.30;2.80;;;;;;;;;;4995277;28;20050;-79
2023/07/31 02:39:08;;;;;;;5.63;2.80;;;;;;;;;;4995833;28;20548;-79
2023/07/31 02:41:35;;;;;;;4.45;2.40;;;;;;;;;;4995272;28;20137;-78
2023/07/31 02:44:02;;;;;;;5.72;3.15;;;;;;;;;;4995237;28;20051;-79
2023/07/31 02:46:28;;;;;;;6.57;3.17;;;;;;;;;;4994728;28;20051;-79
2023/07/31 02:48:55;;;;;;;5.50;3.35;;;;;;;;;;4996497;28;20047;-79
2023/07/31 02:51:21;;;;;;;5.20;3.13;;;;;;;;;;4995590;28;20129;-78
2023/07/31 02:53:50;;;;;;;5.97;2.97;;;;;;;;;;4995235;28;20054;-79
2023/07/31 02:56:16;;;;;;;5.60;2.90;;;;;;;;;;4994958;28;20053;-78
2023/07/31 02:58:43;;;;;;;6.82;3.08;;;;;;;;;;4993866;28;20077;-78
2023/07/31 03:01:09;;;;;;;4.80;2.90;;;;;;;;;;4995672;28;20061;-78
2023/07/31 03:03:36;;;;;;;4.95;3.35;;;;;;;;;;4995470;28;20046;-79
2023/07/31 03:06:02;;;;;;;5.18;3.28;;;;;;;;;;4993635;28;20043;-78
2023/07/31 03:08:29;;;;;;;6.13;3.20;;;;;;;;;;4994453;28;20052;-78
2023/07/31 03:10:57;;;;;;;4.25;3.08;;;;;;;;;;4990640;28;20053;-79
2023/07/31 03:13:24;;;;;;;4.57;3.22;;;;;;;;;;4993767;28;20047;-79
2023/07/31 03:15:51;;;;;;;5.78;3.58;;;;;;;;;;4993288;28;20050;-79
2023/07/31 03:18:17;;;;;;;7.28;3.47;;;;;;;;;;4994342;28;20046;-79
2023/07/31 03:20:44;;;;;;;7.93;3.55;;;;;;;;;;4994604;28;20054;-78
2023/07/31 03:23:11;;;;;;;6.28;3.15;;;;;;;;;;4994016;28;20043;-78
2023/07/31 03:25:38;;;;;;;5.80;3.30;;;;;;;;;;4994957;28;20047;-79
2023/07/31 03:28:06;;;;;;;5.28;3.10;;;;;;;;;;4994786;28;20050;-78
2023/07/31 03:30:32;;;;;;;6.95;3.15;;;;;;;;;;4993565;28;20042;-78
2023/07/31 03:32:59;;;;;;;6.28;3.40;;;;;;;;;;4993621;28;20043;-79
2023/07/31 03:35:26;;;;;;;5.35;3.08;;;;;;;;;;4994865;28;20052;-79
2023/07/31 03:37:52;;;;;;;6.70;3.75;;;;;;;;;;4995298;28;20057;-78
2023/07/31 03:40:19;;;;;;;6.05;3.38;;;;;;;;;;4995365;28;20539;-79
2023/07/31 03:42:45;;;;;;;5.85;3.67;;;;;;;;;;4995560;28;20138;-78
2023/07/31 03:45:13;;;;;;;4.57;2.92;;;;;;;;;;4995677;28;20050;-78
2023/07/31 03:47:40;;;;;;;5.75;3.40;;;;;;;;;;4998862;28;20134;-78
2023/07/31 03:50:07;;;;;;;5.82;3.65;;;;;;;;;;4993196;28;20058;-78
2023/07/31 03:52:34;;;;;;;8.07;4.10;;;;;;;;;;4993832;28;20064;-78
2023/07/31 03:55:00;;;;;;;5.43;3.30;;;;;;;;;;4994186;28;20837;-78
2023/07/31 03:57:27;;;;;;;6.03;3.55;;;;;;;;;;4994096;28;20050;-78
2023/07/31 03:59:53;;;;;;;6.40;3.28;;;;;;;;;;4994065;28;20061;-79
2023/07/31 04:02:21;;;;;;;5.88;3.35;;;;;;;;;;4992928;28;20125;-77
2023/07/31 04:04:48;;;;;;;6.60;3.80;;;;;;;;;;4993914;28;20596;-79
2023/07/31 04:07:14;;;;;;;6.05;3.50;;;;;;;;;;4993276;28;20715;-78
2023/07/31 04:09:41;;;;;;;5.47;3.55;;;;;;;;;;4993809;28;20114;-78
2023/07/31 04:12:08;;;;;;;6.10;3.75;;;;;;;;;;4993565;28;20054;-78
2023/07/31 04:14:34;;;;;;;6.43;3.35;;;;;;;;;;4993987;28;20584;-78
2023/07/31 04:17:01;;;;;;;6.53;3.55;;;;;;;;;;4993759;28;20062;-78
2023/07/31 04:19:29;;;;;;;5.93;3.67;;;;;;;;;;4993816;28;20073;-79
2023/07/31 04:21:55;;;;;;;6.32;3.65;;;;;;;;;;4994215;28;20703;-79
2023/07/31 04:24:24;;;;;;;4.82;3.45;;;;;;;;;;4993845;28;20050;-79
2023/07/31 04:26:50;;;;;;;6.32;3.30;;;;;;;;;;4995366;28;20058;-79
2023/07/31 04:29:17;;;;;;;6.38;3.58;;;;;;;;;;4999215;28;20428;-79
2023/07/31 04:31:44;;;;;;;5.88;3.97;;;;;;;;;;5000707;28;20117;-79
2023/07/31 04:34:11;;;;;;;5.47;3.35;;;;;;;;;;4996854;28;20050;-79
2023/07/31 04:36:38;;;;;;;6.18;3.65;;;;;;;;;;4998187;28;20049;-79
2023/07/31 04:39:05;;;;;;;5.35;3.25;;;;;;;;;;4998323;28;20042;-79
2023/07/31 04:41:31;;;;;;;4.90;3.00;;;;;;;;;;4998288;28;20060;-79
2023/07/31 04:43:58;;;;;;;5.93;3.70;;;;;;;;;;4997252;28;20715;-78
2023/07/31 04:46:24;;;;;;;5.72;3.30;;;;;;;;;;4997351;28;20066;-80
2023/07/31 04:48:51;;;;;;;5.78;3.90;;;;;;;;;;4997014;28;20050;-79
2023/07/31 04:51:18;;;;;;;5.22;3.65;;;;;;;;;;4994260;28;20050;-79
2023/07/31 04:53:46;;;;;;;6.28;3.85;;;;;;;;;;4996344;28;20042;-78
2023/07/31 04:56:12;;;;;;;6.20;3.10;;;;;;;;;;4995252;28;20129;-78
2023/07/31 04:58:39;;;;;;;5.80;3.55;;;;;;;;;;4993922;28;20105;-79
2023/07/31 05:01:05;;;;;;;6.90;3.53;;;;;;;;;;4994868;28;20066;-79
2023/07/31 05:03:32;;;;;;;6.75;3.58;;;;;;;;;;4997669;28;20064;-79
2023/07/31 05:05:58;;;;;;;5.70;3.80;;;;;;;;;;4998243;28;20058;-80
2023/07/31 05:08:25;;;;;;;7.20;3.50;;;;;;;;;;4996695;28;20070;-79
2023/07/31 05:10:53;;;;;;;5.63;3.80;;;;;;;;;;4996633;28;20129;-79
2023/07/31 05:13:19;;;;;;;6.20;3.90;;;;;;;;;;4995072;28;20046;-78
2023/07/31 05:15:46;;;;;;;7.22;3.55;;;;;;;;;;4994570;28;20056;-79
2023/07/31 05:18:12;;;;;;;5.88;3.55;;;;;;;;;;4995345;28;20054;-78
2023/07/31 05:20:39;;;;;;;5.53;3.53;;;;;;;;;;4995040;28;20109;-79
2023/07/31 05:23:05;;;;;;;3.95;2.58;;;;;;;;;;4994465;28;20053;-79
2023/07/31 05:25:32;;;;;;;6.07;3.15;;;;;;;;;;4994635;28;20441;-79
2023/07/31 05:28:00;;;;;;;5.28;2.90;;;;;;;;;;4994652;28;20046;-80
2023/07/31 05:30:26;;;;;;;5.18;3.08;;;;;;;;;;4994029;28;20046;-79
2023/07/31 05:32:53;;;;;;;5.97;2.90;;;;;;;;;;4996968;28;20476;-79
2023/07/31 05:35:19;;;;;;;5.82;3.08;;;;;;;;;;4993405;28;20665;-79
2023/07/31 05:37:46;;;;;;;5.22;2.70;;;;;;;;;;4999558;28;20053;-81
2023/07/31 05:40:12;;;;;;;4.70;2.28;;;;;;;;;;4997587;28;20057;-80
2023/07/31 05:42:39;;;;;;;7.07;3.13;;;;;;;;;;4996683;28;20050;-80
2023/07/31 05:45:08;;;;;;;5.22;2.40;;;;;;;;;;4995218;28;20046;-79
2023/07/31 05:47:35;;;;;;;4.18;2.17;;;;;;;;;;4994333;28;20144;-80
2023/07/31 05:50:01;;;;;;;4.22;2.30;;;;;;;;;;4996758;28;20073;-79
2023/07/31 05:52:29;;;;;;;4.80;2.40;;;;;;;;;;4996634;28;20046;-80
2023/07/31 05:54:56;;;;;;;5.07;2.13;;;;;;;;;;4995676;28;20708;-79
2023/07/31 05:57:22;;;;;;;4.60;2.45;;;;;;;;;;4997613;28;20042;-80
2023/07/31 05:59:49;;;;;;;5.68;2.05;;;;;;;;;;4996449;28;20053;-80
2023/07/31 06:02:17;;;;;;;4.10;2.13;;;;;;;;;;4992028;28;20057;-80
2023/07/31 06:04:43;;;;;;;3.78;1.70;;;;;;;;;;4994985;28;20521;-80
2023/07/31 06:07:10;;;;;;;3.85;2.28;;;;;;;;;;4994167;28;20124;-80
2023/07/31 06:09:37;;;;;;;4.20;2.40;;;;;;;;;;4996511;28;20042;-79
2023/07/31 06:12:04;;;;;;;5.72;2.30;;;;;;;;;;4998464;28;20130;-79
2023/07/31 06:14:30;;;;;;;4.70;2.20;;;;;;;;;;4996181;28;20077;-79
2023/07/31 06:16:57;;;;;;;5.20;2.17;;;;;;;;;;4998627;28;20065;-80
2023/07/31 06:19:25;;;;;;;4.32;2.00;;;;;;;;;;4996474;28;20042;-80
2023/07/31 06:21:51;;;;;;;4.97;2.00;;;;;;;;;;4998398;28;20146;-80
2023/07/31 06:24:20;;;;;;;4.22;2.30;;;;;;;;;;4997778;28;20052;-79
2023/07/31 06:26:46;;;;;;;3.65;2.17;;;;;;;;;;4998216;28;20859;-80
2023/07/31 06:29:13;;;;;;;4.60;2.00;;;;;;;;;;4995413;28;20046;-80
2023/07/31 06:31:41;;;;;;;5.30;1.95;;;;;;;;;;4997333;28;20061;-80
2023/07/31 06:34:07;;;;;;;5.90;1.98;;;;;;;;;;4995473;28;20145;-79
2023/07/31 06:36:35;;;;;;;3.90;2.17;;;;;;;;;;4999317;28;20048;-80
2023/07/31 06:39:02;;;;;;;4.00;1.80;;;;;;;;;;4994470;28;20102;-80
2023/07/31 06:41:28;;;;;;;3.38;1.80;;;;;;;;;;5001918;28;20053;-81
2023/07/31 06:43:55;;;;;;;4.28;2.20;;;;;;;;;;5003940;28;20073;-80
2023/07/31 06:46:22;;;;;;;3.45;1.65;;;;;;;;;;5003543;28;20070;-80
2023/07/31 06:48:48;;;;;;;5.95;2.47;;;;;;;;;;5003795;28;20066;-79
2023/07/31 06:51:15;;;;;;;4.15;2.08;;;;;;;;;;4999705;28;20102;-81
2023/07/31 06:53:45;;;;;;;3.50;1.83;;;;;;;;;;5000183;28;20069;-81
2023/07/31 06:56:11;;;;;;;5.07;2.03;;;;;;;;;;5003261;28;20050;-81
2023/07/31 06:58:38;;;;;;;6.05;2.10;;;;;;;;;;5004280;28;20077;-79
2023/07/31 07:01:04;;;;;;;4.82;2.50;;;;;;;;;;4999676;28;20117;-80
2023/07/31 07:03:32;;;;;;;5.32;2.08;;;;;;;;;;5003738;28;20047;-80
2023/07/31 07:05:58;;;;;;;8.18;4.00;;;;;;;;;;5003913;28;20070;-81
2023/07/31 07:08:25;;;;;;;3.58;1.77;;;;;;;;;;5003621;28;20042;-80
2023/07/31 07:10:53;;;;;;;4.00;1.88;;;;;;;;;;5002482;28;20043;-80
2023/07/31 07:13:20;;;;;;;4.35;2.10;;;;;;;;;;5002028;28;20046;-81
2023/07/31 07:15:49;;;;;;;4.35;2.00;;;;;;;;;;4999956;28;20046;-81
2023/07/31 07:18:16;;;;;;;5.60;2.20;;;;;;;;;;4997453;28;20524;-80
2023/07/31 07:20:47;;;;;;;4.88;2.15;;;;;;;;;;4994409;28;20058;-81
2023/07/31 07:23:13;;;;;;;4.90;1.95;;;;;;;;;;4995429;28;20042;-78
2023/07/31 07:25:40;;;;;;;5.15;2.20;;;;;;;;;;4998716;28;20129;-80
2023/07/31 07:28:08;;;;;;;4.32;2.00;;;;;;;;;;4987260;28;20046;-82
2023/07/31 07:30:35;;;;;;;3.83;1.90;;;;;;;;;;4988073;28;20046;-80
2023/07/31 07:33:01;;;;;;;4.47;1.98;;;;;;;;;;4987227;28;20046;-79
2023/07/31 07:35:28;;;;;;;4.75;1.88;;;;;;;;;;4993158;28;20125;-81
2023/07/31 07:37:55;;;;;;;4.18;2.55;;;;;;;;;;4989028;28;20057;-79
2023/07/31 07:40:21;;;;;;;4.32;1.95;;;;;;;;;;4993078;28;20053;-79
2023/07/31 07:42:48;;;;;;;4.35;2.10;;;;;;;;;;4988551;28;20050;-79
2023/07/31 07:45:16;;;;;;;3.90;1.80;;;;;;;;;;4993967;28;20046;-79
2023/07/31 07:47:42;;;;;;;3.75;1.85;;;;;;;;;;4991878;28;20038;-78
2023/07/31 07:50:10;;;;;;;3.42;2.20;;;;;;;;;;4993237;28;20092;-79
2023/07/31 07:52:36;;;;;;;3.63;1.88;;;;;;;;;;4991824;28;20042;-81
2023/07/31 07:55:03;;;;;;;3.92;2.20;;;;;;;;;;4991432;28;20586;-80
2023/07/31 07:57:30;;;;;;;4.57;2.00;;;;;;;;;;4992080;28;20052;-79
2023/07/31 07:59:56;;;;;;;3.97;2.10;;;;;;;;;;4991903;28;20046;-81
2023/07/31 08:02:24;;;;;;;4.25;2.15;;;;;;;;;;4989235;28;20046;-79
2023/07/31 08:04:51;;;;;;;5.85;2.30;;;;;;;;;;4990380;28;20073;-79
2023/07/31 08:07:18;;;;;;;5.35;1.90;;;;;;;;;;4991459;28;20122;-78
2023/07/31 08:09:44;;;;;;;5.43;2.20;;;;;;;;;;4989695;28;20047;-79
2023/07/31 08:12:11;;;;;;;4.00;1.90;;;;;;;;;;4990952;28;20053;-79
2023/07/31 08:14:38;;;;;;;3.72;1.95;;;;;;;;;;4994550;28;20042;-78
2023/07/31 08:17:05;;;;;;;3.78;1.92;;;;;;;;;;4987408;28;20054;-78
2023/07/31 08:19:33;;;;;;;3.92;1.88;;;;;;;;;;4992342;28;20038;-79
2023/07/31 08:21:59;;;;;;;4.47;2.03;;;;;;;;;;4992211;28;20073;-79
2023/07/31 08:24:26;;;;;;;3.53;1.73;;;;;;;;;;4991058;28;20130;-77
2023/07/31 08:26:52;;;;;;;4.55;1.90;;;;;;;;;;4990437;28;20050;-79
2023/07/31 08:29:19;;;;;;;4.45;1.83;;;;;;;;;;4989083;28;20529;-79
2023/07/31 08:31:45;;;;;;;3.95;1.90;;;;;;;;;;4987978;28;20061;-79
2023/07/31 08:34:12;;;;;;;3.92;1.95;;;;;;;;;;4991419;28;20056;-78
2023/07/31 08:36:40;;;;;;;3.65;1.73;;;;;;;;;;4993048;28;20572;-79
2023/07/31 08:39:06;;;;;;;4.65;1.75;;;;;;;;;;4991963;28;20046;-79
2023/07/31 08:41:38;;;;;;;3.65;1.50;;;;;;;;;;4982978;28;20130;-79
2023/07/31 08:44:05;;;;;;;2.97;1.55;;;;;;;;;;4984873;28;20050;-79
2023/07/31 08:46:33;;;;;;;3.75;1.40;;;;;;;;;;4990448;28;20048;-79
2023/07/31 08:49:01;;;;;;;3.08;1.60;;;;;;;;;;4987132;28;20677;-79
2023/07/31 08:51:27;;;;;;;3.40;1.58;;;;;;;;;;4990827;28;20039;-79
2023/07/31 08:53:57;;;;;;;5.63;1.92;;;;;;;;;;4991066;28;20061;-78
2023/07/31 08:56:24;;;;;;;3.28;1.48;;;;;;;;;;4989423;28;20043;-78
2023/07/31 08:58:52;;;;;;;3.20;1.50;;;;;;;;;;4989380;28;20142;-79
2023/07/31 09:01:19;;;;;;;2.95;1.60;;;;;;;;;;4990920;28;20042;-79
2023/07/31 09:03:47;;;;;;;4.63;1.75;;;;;;;;;;4986423;28;20054;-79
2023/07/31 09:06:15;;;;;;;4.30;1.88;;;;;;;;;;4990376;28;20046;-79
2023/07/31 09:08:42;;;;;;;4.18;1.60;;;;;;;;;;4979466;28;20130;-79
2023/07/31 09:11:10;;;;;;;4.40;1.85;;;;;;;;;;4989678;28;20046;-79
2023/07/31 09:13:39;;;;;;;3.47;1.75;;;;;;;;;;4989206;28;20046;-79
2023/07/31 09:16:05;;;;;;;3.72;1.85;;;;;;;;;;4988676;28;20477;-79
2023/07/31 09:18:32;;;;;;;4.03;2.08;;;;;;;;;;4981935;28;20058;-79
2023/07/31 09:21:03;;;;;;;4.47;1.77;;;;;;;;;;4982424;28;20527;-80
2023/07/31 09:23:42;;;;;;;3.50;1.58;;;;;;;;;;4989170;28;20046;-78
2023/07/31 09:26:08;;;;;;;3.55;1.60;;;;;;;;;;4988966;28;20057;-80
2023/07/31 09:28:36;;;;;;;3.80;2.05;;;;;;;;;;4985756;28;20053;-80
2023/07/31 09:31:03;;;;;;;3.08;1.73;;;;;;;;;;4989249;28;20539;-79
2023/07/31 09:33:30;;;;;;;5.32;2.10;;;;;;;;;;4987365;28;20133;-79
2023/07/31 09:35:59;;;;;;;4.47;1.40;;;;;;;;;;4990700;28;20413;-79
2023/07/31 09:38:26;;;;;;;5.95;1.98;;;;;;;;;;4988117;28;20043;-79
2023/07/31 09:40:52;;;;;;;4.57;1.88;;;;;;;;;;4984103;28;20058;-79
2023/07/31 09:43:21;;;;;;;4.95;1.90;;;;;;;;;;4986901;28;20042;-78
2023/07/31 09:45:54;;;;;;;4.50;1.90;;;;;;;;;;4986108;28;20078;-79
2023/07/31 09:48:21;;;;;;;6.43;1.95;;;;;;;;;;4983243;28;20424;-78
2023/07/31 09:50:49;;;;;;;3.30;1.70;;;;;;;;;;4990505;28;20137;-79
2023/07/31 09:53:17;;;;;;;4.25;1.77;;;;;;;;;;4989260;28;20429;-77
2023/07/31 09:55:44;;;;;;;4.22;1.90;;;;;;;;;;4991119;28;20054;-79
2023/07/31 09:58:13;;;;;;;3.97;1.52;;;;;;;;;;4984641;28;20046;-79
2023/07/31 10:00:39;;;;;;;5.22;1.80;;;;;;;;;;4990185;28;20126;-79
2023/07/31 10:03:09;;;;;;;3.47;1.70;;;;;;;;;;4990137;28;20236;-78
2023/07/31 10:05:38;;;;;;;4.25;2.15;;;;;;;;;;4988382;28;20050;-78
2023/07/31 10:08:06;;;;;;;4.60;2.00;;;;;;;;;;4985327;28;20054;-78
2023/07/31 10:10:36;;;;;;;5.05;2.25;;;;;;;;;;4983099;28;20519;-79
2023/07/31 10:13:03;;;;;;;3.90;1.83;;;;;;;;;;4989236;28;20239;-79
2023/07/31 10:15:30;;;;;;;5.50;1.90;;;;;;;;;;4989073;28;20520;-79
2023/07/31 10:17:57;;;;;;;3.92;1.83;;;;;;;;;;4986424;28;20066;-80
2023/07/31 10:20:27;;;;;;;5.32;1.95;;;;;;;;;;4980799;28;20435;-79
2023/07/31 10:22:56;;;;;;;3.70;1.73;;;;;;;;;;4987148;28;20050;-79
2023/07/31 10:25:23;;;;;;;4.05;1.98;;;;;;;;;;4987019;28;20042;-79
2023/07/31 10:27:50;;;;;;;5.50;1.90;;;;;;;;;;4986623;28;20045;-79
2023/07/31 10:30:18;;;;;;;4.40;1.88;;;;;;;;;;4989948;28;20046;-77
2023/07/31 10:32:46;;;;;;;4.43;1.88;;;;;;;;;;4986374;28;20137;-78
2023/07/31 10:35:13;;;;;;;4.78;1.80;;;;;;;;;;4990041;28;20061;-79
2023/07/31 10:37:43;;;;;;;4.80;1.90;;;;;;;;;;4989252;28;20679;-79
2023/07/31 10:40:11;;;;;;;;;;;;;;;;;;4991058;28;20042;-79
2023/07/31 10:42:47;;;;;;;3.72;1.90;;;;;;;;;;4994835;28;19922;-80
2023/07/31 10:45:14;;;;;;;4.10;2.03;;;;;;;;;;4988256;28;20054;-83
2023/07/31 10:47:44;;;;;;;4.65;2.00;;;;;;;;;;4978458;28;20049;-80
2023/07/31 10:50:17;;;;;;;5.40;1.85;;;;;;;;;;4982388;28;20043;-79
2023/07/31 10:52:48;;;;;;;3.67;1.85;;;;;;;;;;4987912;28;20042;-77
2023/07/31 10:55:27;;;;;;;3.72;1.55;;;;;;;;;;4991643;28;20055;-79
2023/07/31 10:57:54;;;;;;;4.97;1.63;;;;;;;;;;4991226;28;20060;-78
2023/07/31 11:00:23;;;;;;;4.60;2.05;;;;;;;;;;4992477;28;20116;-79
2023/07/31 11:03:00;;;;;;;3.95;1.95;;;;;;;;;;4982686;28;20073;-78
2023/07/31 11:05:44;;;;;;;3.42;1.67;;;;;;;;;;4988370;28;20133;-80
2023/07/31 11:08:17;;;;;;;3.58;2.10;;;;;;;;;;4989553;28;20054;-79
2023/07/31 11:10:44;;;;;;;4.50;1.80;;;;;;;;;;4992256;28;20509;-80
2023/07/31 11:13:11;;;;;;;4.00;1.90;;;;;;;;;;4993076;28;20043;-80
2023/07/31 11:15:38;;;;;;;3.92;2.10;;;;;;;;;;4991045;28;20501;-80
2023/07/31 11:18:05;;;;;;;4.07;1.92;;;;;;;;;;4991574;28;20114;-79
2023/07/31 11:20:35;;;;;;;4.75;1.90;;;;;;;;;;4992182;28;20046;-80
2023/07/31 11:23:02;;;;;;;3.10;1.80;;;;;;;;;;4994405;28;20137;-80
2023/07/31 11:25:32;;;;;;;6.93;2.17;;;;;;;;;;4996827;28;20069;-80
2023/07/31 11:27:59;;;;;;;5.18;2.00;;;;;;;;;;4995039;28;20046;-80
2023/07/31 11:30:25;;;;;;;3.80;1.63;;;;;;;;;;4996611;28;20420;-79
2023/07/31 11:32:52;;;;;;;4.03;1.90;;;;;;;;;;4995685;28;20126;-78
2023/07/31 11:35:19;;;;;;;4.03;1.80;;;;;;;;;;4999855;28;20077;-80
2023/07/31 11:37:46;;;;;;;3.53;1.80;;;;;;;;;;4994727;28;20141;-80
2023/07/31 11:40:13;;;;;;;3.70;1.80;;;;;;;;;;4999182;28;20043;-81
2023/07/31 11:42:41;;;;;;;3.28;1.85;;;;;;;;;;4997285;28;20094;-80
2023/07/31 11:45:09;;;;;;;4.63;1.60;;;;;;;;;;4998388;28;20129;-80
2023/07/31 11:47:37;;;;;;;2.72;1.58;;;;;;;;;;5023019;22;20046;-76
2023/07/31 11:50:06;;;;;;;3.33;1.83;;;;;;;;;;5010863;28;20084;-76
2023/07/31 11:52:38;;;;;;;3.65;1.77;;;;;;;;;;5011428;28;20103;-76
2023/07/31 11:55:06;;;;;;;3.45;1.80;;;;;;;;;;5011462;28;20397;-76
2023/07/31 11:57:34;;;;;;;4.38;1.80;;;;;;;;;;5004043;28;20051;-77
2023/07/31 12:00:02;;;;;;;5.35;2.15;;;;;;;;;;4999413;28;20046;-77
2023/07/31 12:02:29;;;;;;;5.18;2.10;;;;;;;;;;4987212;28;20359;-75
2023/07/31 12:04:56;;;;;;;3.63;2.00;;;;;;;;;;4999387;28;20497;-76
2023/07/31 12:07:24;;;;;;;3.42;1.73;;;;;;;;;;4997924;28;20046;-77
2023/07/31 12:09:54;;;;;;;4.20;2.30;;;;;;;;;;5000331;28;20053;-76
2023/07/31 12:12:22;;;;;;;3.17;1.65;;;;;;;;;;4991634;28;20049;-75
2023/07/31 12:14:50;;;;;;;3.17;1.88;;;;;;;;;;5000457;28;20050;-76
2023/07/31 12:17:20;;;;;;;4.43;1.90;;;;;;;;;;4991882;28;20054;-75
2023/07/31 12:19:49;;;;;;;;;;;;;;;;;;5001198;28;20104;-77
2023/07/31 12:22:16;;;;;;;4.03;1.67;;;;;;;;;;4995744;28;19932;-75
2023/07/31 12:24:45;;;;;;;3.47;1.70;;;;;;;;;;4999432;28;20117;-76
2023/07/31 12:27:12;;;;;;;4.38;1.90;;;;;;;;;;4995893;28;20076;-75
2023/07/31 12:29:40;;;;;;;3.78;2.00;;;;;;;;;;4991598;28;20406;-76
2023/07/31 12:32:20;;;;;;;4.43;2.45;;;;;;;;;;4994487;28;20064;-76
2023/07/31 12:34:47;;;;;;;3.67;1.73;;;;;;;;;;4985676;28;20435;-77
2023/07/31 12:37:14;;;;;;;3.75;1.90;;;;;;;;;;5003996;28;20054;-76
2023/07/31 12:39:40;;;;;;;4.53;1.75;;;;;;;;;;4996092;28;20417;-75
2023/07/31 12:42:07;;;;;;;3.03;1.80;;;;;;;;;;4989624;28;20567;-74
2023/07/31 12:44:34;;;;;;;5.07;1.98;;;;;;;;;;4989445;28;20049;-76
2023/07/31 12:47:01;;;;;;;4.55;1.80;;;;;;;;;;5001738;28;20508;-76
2023/07/31 12:49:28;;;;;;;4.05;1.85;;;;;;;;;;4991463;28;20054;-76
2023/07/31 12:51:55;;;;;;;4.43;1.92;;;;;;;;;;4987713;28;20057;-75
2023/07/31 12:54:22;;;;;;;3.38;1.83;;;;;;;;;;4987227;28;20038;-76
2023/07/31 12:56:48;;;;;;;3.45;1.70;;;;;;;;;;4997660;28;20119;-77
2023/07/31 12:59:15;;;;;;;4.47;1.90;;;;;;;;;;4999870;28;20054;-75
2023/07/31 13:01:41;;;;;;;6.13;1.83;;;;;;;;;;5009397;28;20041;-76
2023/07/31 13:04:08;;;;;;;3.92;1.90;;;;;;;;;;5008740;28;20842;-77
2023/07/31 13:06:36;;;;;;;4.05;1.90;;;;;;;;;;4997480;28;20100;-75
2023/07/31 13:09:04;;;;;;;4.82;1.95;;;;;;;;;;4995566;28;20046;-76
2023/07/31 13:11:30;;;;;;;3.85;1.70;;;;;;;;;;4995774;28;20042;-76
2023/07/31 13:13:57;;;;;;;4.15;1.90;;;;;;;;;;4983782;28;20049;-75
2023/07/31 13:16:23;;;;;;;3.90;1.98;;;;;;;;;;4980002;28;20050;-76
2023/07/31 13:18:51;;;;;;;3.35;1.83;;;;;;;;;;4991037;28;20201;-76
2023/07/31 13:21:18;;;;;;;4.05;1.70;;;;;;;;;;4997201;28;20489;-77
2023/07/31 13:23:46;;;;;;;4.18;1.75;;;;;;;;;;4998258;28;20108;-76
2023/07/31 13:26:12;;;;;;;4.25;2.03;;;;;;;;;;4999927;28;20046;-76
2023/07/31 13:28:39;;;;;;;3.90;2.05;;;;;;;;;;4998914;28;20193;-77
2023/07/31 13:31:06;;;;;;;3.92;1.85;;;;;;;;;;4994166;28;20046;-77
2023/07/31 13:33:32;;;;;;;4.35;2.03;;;;;;;;;;4996108;28;20141;-78
2023/07/31 13:35:59;;;;;;;3.38;1.77;;;;;;;;;;4994906;28;20048;-77
2023/07/31 13:38:25;;;;;;;4.13;1.80;;;;;;;;;;5000428;28;20481;-77
2023/07/31 13:40:53;;;;;;;3.05;1.50;;;;;;;;;;5009306;28;20426;-76
2023/07/31 13:43:20;;;;;;;3.75;1.80;;;;;;;;;;4995877;28;20066;-76
2023/07/31 13:45:46;;;;;;;4.38;1.50;;;;;;;;;;4998392;28;20050;-76
2023/07/31 13:48:13;;;;;;;3.85;1.65;;;;;;;;;;4992342;28;20060;-75
2023/07/31 13:50:39;;;;;;;4.35;1.67;;;;;;;;;;4998971;28;20042;-76
2023/07/31 13:53:06;;;;;;;3.22;1.73;;;;;;;;;;4993002;28;20046;-76
2023/07/31 13:55:32;;;;;;;5.18;2.03;;;;;;;;;;4986432;28;20530;-75
2023/07/31 13:58:00;;;;;;;4.50;1.98;;;;;;;;;;4984685;28;20050;-77
2023/07/31 14:00:28;;;;;;;3.80;1.67;;;;;;;;;;4988543;28;20045;-75
2023/07/31 14:02:55;;;;;;;4.32;1.73;;;;;;;;;;4987555;28;20061;-76
2023/07/31 14:05:21;;;;;;;4.55;1.90;;;;;;;;;;4993120;28;20050;-76
2023/07/31 14:07:48;;;;;;;4.07;1.48;;;;;;;;;;5000278;28;20475;-76
2023/07/31 14:10:15;;;;;;;2.78;1.50;;;;;;;;;;5000990;28;20042;-75
2023/07/31 14:12:41;;;;;;;4.03;1.67;;;;;;;;;;5009067;28;20049;-76
2023/07/31 14:15:13;;;;;;;3.97;1.77;;;;;;;;;;4992615;28;20486;-76
2023/07/31 14:17:39;;;;;;;3.70;1.80;;;;;;;;;;4984044;28;20053;-76
2023/07/31 14:20:07;;;;;;;4.32;1.83;;;;;;;;;;4988808;28;20046;-76
2023/07/31 14:22:34;;;;;;;3.40;1.80;;;;;;;;;;4983403;28;20050;-76
2023/07/31 14:25:01;;;;;;;3.22;1.77;;;;;;;;;;4984193;28;20069;-76
2023/07/31 14:27:27;;;;;;;3.92;1.92;;;;;;;;;;4980936;28;20528;-76
2023/07/31 14:29:54;;;;;;;4.20;1.95;;;;;;;;;;4996116;28;20520;-76
2023/07/31 14:32:23;;;;;;;4.22;1.92;;;;;;;;;;4982714;28;20050;-75
2023/07/31 14:34:49;;;;;;;4.38;2.10;;;;;;;;;;4980350;28;20057;-76
2023/07/31 14:37:16;;;;;;;4.72;2.30;;;;;;;;;;4997127;28;20065;-76
2023/07/31 14:39:43;;;;;;;4.95;2.55;;;;;;;;;;4989985;28;20473;-77
2023/07/31 14:42:10;;;;;;;3.30;2.10;;;;;;;;;;4994224;28;20428;-76
2023/07/31 14:44:36;;;;;;;4.55;2.05;;;;;;;;;;4996345;28;20052;-76